sensor_id;sensor_type;location;lat;lon;timestamp;temperature;humidity
42979;DHT22;28616;44.746;19.678;2023-05-19T00:01:40;12.50;99.90
42979;DHT22;28616;44.746;19.678;2023-05-19T00:04:09;12.60;99.90
42979;DHT22;28616;44.746;19.678;2023-05-19T00:06:37;12.60;99.90
42979;DHT22;28616;44.746;19.678;2023-05-19T00:09:08;12.50;99.90
42979;DHT22;28616;44.746;19.678;2023-05-19T00:11:35;12.50;99.90
42979;DHT22;28616;44.746;19.678;2023-05-19T00:14:04;12.60;99.90
42979;DHT22;28616;44.746;19.678;2023-05-19T00:16:31;12.60;99.90
42979;DHT22;28616;44.746;19.678;2023-05-19T00:18:58;12.60;99.90
42979;DHT22;28616;44.746;19.678;2023-05-19T00:21:30;12.60;99.90
42979;DHT22;28616;44.746;19.678;2023-05-19T00:23:57;12.60;99.90
42979;DHT22;28616;44.746;19.678;2023-05-19T00:26:24;12.70;99.90
42979;DHT22;28616;44.746;19.678;2023-05-19T00:28:52;12.60;99.90
42979;DHT22;28616;44.746;19.678;2023-05-19T00:31:18;12.60;99.90
42979;DHT22;28616;44.746;19.678;2023-05-19T00:33:44;12.60;99.90
42979;DHT22;28616;44.746;19.678;2023-05-19T00:36:09;12.50;99.90
42979;DHT22;28616;44.746;19.678;2023-05-19T00:38:36;12.50;99.90
42979;DHT22;28616;44.746;19.678;2023-05-19T00:41:03;12.50;99.90
42979;DHT22;28616;44.746;19.678;2023-05-19T00:43:30;12.50;99.90
42979;DHT22;28616;44.746;19.678;2023-05-19T00:45:56;12.50;99.90
42979;DHT22;28616;44.746;19.678;2023-05-19T00:48:24;12.50;99.90
42979;DHT22;28616;44.746;19.678;2023-05-19T00:50:50;12.50;99.90
42979;DHT22;28616;44.746;19.678;2023-05-19T00:53:17;12.50;99.90
42979;DHT22;28616;44.746;19.678;2023-05-19T00:55:45;12.40;99.90
42979;DHT22;28616;44.746;19.678;2023-05-19T00:58:12;12.50;99.90
42979;DHT22;28616;44.746;19.678;2023-05-19T01:00:38;12.40;99.90
42979;DHT22;28616;44.746;19.678;2023-05-19T01:03:05;12.50;99.90
42979;DHT22;28616;44.746;19.678;2023-05-19T01:05:45;12.50;99.90
42979;DHT22;28616;44.746;19.678;2023-05-19T01:08:12;12.50;99.90
42979;DHT22;28616;44.746;19.678;2023-05-19T01:10:38;12.50;99.90
42979;DHT22;28616;44.746;19.678;2023-05-19T01:13:04;12.50;99.90
42979;DHT22;28616;44.746;19.678;2023-05-19T01:15:45;12.50;99.90
42979;DHT22;28616;44.746;19.678;2023-05-19T01:18:27;12.50;99.90
42979;DHT22;28616;44.746;19.678;2023-05-19T01:24:20;12.60;99.90
42979;DHT22;28616;44.746;19.678;2023-05-19T01:27:13;12.60;99.90
42979;DHT22;28616;44.746;19.678;2023-05-19T01:30:22;12.50;99.90
42979;DHT22;28616;44.746;19.678;2023-05-19T01:32:53;12.50;99.90
42979;DHT22;28616;44.746;19.678;2023-05-19T01:35:22;12.50;99.90
42979;DHT22;28616;44.746;19.678;2023-05-19T01:37:51;12.50;99.90
42979;DHT22;28616;44.746;19.678;2023-05-19T01:40:20;12.50;99.90
42979;DHT22;28616;44.746;19.678;2023-05-19T01:42:48;12.50;99.90
42979;DHT22;28616;44.746;19.678;2023-05-19T01:45:15;12.60;99.90
42979;DHT22;28616;44.746;19.678;2023-05-19T01:47:46;12.60;99.90
42979;DHT22;28616;44.746;19.678;2023-05-19T01:50:13;12.60;99.90
42979;DHT22;28616;44.746;19.678;2023-05-19T01:52:38;12.60;99.90
42979;DHT22;28616;44.746;19.678;2023-05-19T01:55:05;12.60;99.90
42979;DHT22;28616;44.746;19.678;2023-05-19T02:02:59;12.50;99.90
42979;DHT22;28616;44.746;19.678;2023-05-19T02:08:41;12.50;99.90
42979;DHT22;28616;44.746;19.678;2023-05-19T02:14:06;12.50;99.90
42979;DHT22;28616;44.746;19.678;2023-05-19T02:16:33;12.50;99.90
42979;DHT22;28616;44.746;19.678;2023-05-19T02:19:00;12.50;99.90
42979;DHT22;28616;44.746;19.678;2023-05-19T02:21:26;12.50;99.90
42979;DHT22;28616;44.746;19.678;2023-05-19T02:23:52;12.50;99.90
42979;DHT22;28616;44.746;19.678;2023-05-19T02:26:18;12.50;99.90
42979;DHT22;28616;44.746;19.678;2023-05-19T02:28:43;12.50;99.90
42979;DHT22;28616;44.746;19.678;2023-05-19T02:31:09;12.50;99.90
42979;DHT22;28616;44.746;19.678;2023-05-19T02:33:35;12.40;99.90
42979;DHT22;28616;44.746;19.678;2023-05-19T02:36:01;12.50;99.90
42979;DHT22;28616;44.746;19.678;2023-05-19T02:38:27;12.50;99.90
42979;DHT22;28616;44.746;19.678;2023-05-19T02:40:53;12.50;99.90
42979;DHT22;28616;44.746;19.678;2023-05-19T02:43:19;12.50;99.90
42979;DHT22;28616;44.746;19.678;2023-05-19T02:45:45;12.50;99.90
42979;DHT22;28616;44.746;19.678;2023-05-19T02:48:10;12.50;99.90
42979;DHT22;28616;44.746;19.678;2023-05-19T02:50:36;12.50;99.90
42979;DHT22;28616;44.746;19.678;2023-05-19T02:53:03;12.50;99.90
42979;DHT22;28616;44.746;19.678;2023-05-19T02:55:29;12.50;99.90
42979;DHT22;28616;44.746;19.678;2023-05-19T02:57:54;12.50;99.90
42979;DHT22;28616;44.746;19.678;2023-05-19T03:00:20;12.40;99.90
42979;DHT22;28616;44.746;19.678;2023-05-19T03:02:46;12.40;99.90
42979;DHT22;28616;44.746;19.678;2023-05-19T03:05:12;12.40;99.90
42979;DHT22;28616;44.746;19.678;2023-05-19T03:07:40;12.40;99.90
42979;DHT22;28616;44.746;19.678;2023-05-19T03:10:07;12.30;99.90
42979;DHT22;28616;44.746;19.678;2023-05-19T03:12:33;12.40;99.90
42979;DHT22;28616;44.746;19.678;2023-05-19T03:14:59;12.40;99.90
42979;DHT22;28616;44.746;19.678;2023-05-19T03:17:25;12.40;99.90
42979;DHT22;28616;44.746;19.678;2023-05-19T03:19:52;12.40;99.90
42979;DHT22;28616;44.746;19.678;2023-05-19T03:22:18;12.40;99.90
42979;DHT22;28616;44.746;19.678;2023-05-19T03:24:45;12.30;99.90
42979;DHT22;28616;44.746;19.678;2023-05-19T03:27:11;12.40;99.90
42979;DHT22;28616;44.746;19.678;2023-05-19T03:29:37;12.40;99.90
42979;DHT22;28616;44.746;19.678;2023-05-19T03:32:02;12.40;99.90
42979;DHT22;28616;44.746;19.678;2023-05-19T03:34:28;12.40;99.90
42979;DHT22;28616;44.746;19.678;2023-05-19T03:36:54;12.40;99.90
42979;DHT22;28616;44.746;19.678;2023-05-19T03:39:20;12.40;99.90
42979;DHT22;28616;44.746;19.678;2023-05-19T03:41:46;12.40;99.90
42979;DHT22;28616;44.746;19.678;2023-05-19T03:44:11;12.40;99.90
42979;DHT22;28616;44.746;19.678;2023-05-19T03:46:37;12.40;99.90
42979;DHT22;28616;44.746;19.678;2023-05-19T03:49:03;12.40;99.90
42979;DHT22;28616;44.746;19.678;2023-05-19T03:51:29;12.40;99.90
42979;DHT22;28616;44.746;19.678;2023-05-19T03:53:54;12.40;99.90
42979;DHT22;28616;44.746;19.678;2023-05-19T03:56:20;12.40;99.90
42979;DHT22;28616;44.746;19.678;2023-05-19T03:58:49;12.40;99.90
42979;DHT22;28616;44.746;19.678;2023-05-19T04:01:15;12.40;99.90
42979;DHT22;28616;44.746;19.678;2023-05-19T04:03:41;12.50;99.90
42979;DHT22;28616;44.746;19.678;2023-05-19T04:06:07;12.50;99.90
42979;DHT22;28616;44.746;19.678;2023-05-19T04:08:32;12.50;99.90
42979;DHT22;28616;44.746;19.678;2023-05-19T04:10:58;12.50;99.90
42979;DHT22;28616;44.746;19.678;2023-05-19T04:13:24;12.60;99.90
42979;DHT22;28616;44.746;19.678;2023-05-19T04:15:50;12.60;99.90
42979;DHT22;28616;44.746;19.678;2023-05-19T04:18:15;12.60;99.90
42979;DHT22;28616;44.746;19.678;2023-05-19T04:20:41;12.60;99.90
42979;DHT22;28616;44.746;19.678;2023-05-19T04:23:07;12.60;99.90
42979;DHT22;28616;44.746;19.678;2023-05-19T04:25:33;12.60;99.90
42979;DHT22;28616;44.746;19.678;2023-05-19T04:28:00;12.60;99.90
42979;DHT22;28616;44.746;19.678;2023-05-19T04:30:27;12.60;99.90
42979;DHT22;28616;44.746;19.678;2023-05-19T04:32:53;12.60;99.90
42979;DHT22;28616;44.746;19.678;2023-05-19T04:35:19;12.70;99.90
42979;DHT22;28616;44.746;19.678;2023-05-19T04:37:45;12.70;99.90
42979;DHT22;28616;44.746;19.678;2023-05-19T04:40:12;12.70;99.90
42979;DHT22;28616;44.746;19.678;2023-05-19T04:42:38;12.70;99.90
42979;DHT22;28616;44.746;19.678;2023-05-19T04:45:08;12.70;99.90
42979;DHT22;28616;44.746;19.678;2023-05-19T04:47:34;12.70;99.90
42979;DHT22;28616;44.746;19.678;2023-05-19T04:50:03;12.70;99.90
42979;DHT22;28616;44.746;19.678;2023-05-19T04:52:29;12.70;99.90
42979;DHT22;28616;44.746;19.678;2023-05-19T04:54:55;12.70;99.90
42979;DHT22;28616;44.746;19.678;2023-05-19T04:57:21;12.80;99.90
42979;DHT22;28616;44.746;19.678;2023-05-19T04:59:47;12.80;99.90
42979;DHT22;28616;44.746;19.678;2023-05-19T05:02:14;12.80;99.90
42979;DHT22;28616;44.746;19.678;2023-05-19T05:04:39;12.80;99.90
42979;DHT22;28616;44.746;19.678;2023-05-19T05:07:10;12.80;99.90
42979;DHT22;28616;44.746;19.678;2023-05-19T05:09:36;12.80;99.90
42979;DHT22;28616;44.746;19.678;2023-05-19T05:12:02;12.80;99.90
42979;DHT22;28616;44.746;19.678;2023-05-19T05:14:28;12.80;99.90
42979;DHT22;28616;44.746;19.678;2023-05-19T05:16:54;12.90;99.90
42979;DHT22;28616;44.746;19.678;2023-05-19T05:19:20;12.80;99.90
42979;DHT22;28616;44.746;19.678;2023-05-19T05:21:47;12.90;99.90
42979;DHT22;28616;44.746;19.678;2023-05-19T05:24:13;12.80;99.90
42979;DHT22;28616;44.746;19.678;2023-05-19T05:26:39;12.80;99.90
42979;DHT22;28616;44.746;19.678;2023-05-19T05:29:05;12.80;99.90
42979;DHT22;28616;44.746;19.678;2023-05-19T05:31:31;12.80;99.90
42979;DHT22;28616;44.746;19.678;2023-05-19T05:33:57;12.80;99.90
42979;DHT22;28616;44.746;19.678;2023-05-19T05:36:23;12.70;99.90
42979;DHT22;28616;44.746;19.678;2023-05-19T05:38:48;12.70;99.90
42979;DHT22;28616;44.746;19.678;2023-05-19T05:41:15;12.80;99.90
42979;DHT22;28616;44.746;19.678;2023-05-19T05:43:41;12.80;99.90
42979;DHT22;28616;44.746;19.678;2023-05-19T05:46:06;12.90;99.90
42979;DHT22;28616;44.746;19.678;2023-05-19T05:48:32;12.90;99.90
42979;DHT22;28616;44.746;19.678;2023-05-19T05:50:59;12.90;99.90
42979;DHT22;28616;44.746;19.678;2023-05-19T05:53:27;13.00;99.90
42979;DHT22;28616;44.746;19.678;2023-05-19T05:55:54;13.00;99.90
42979;DHT22;28616;44.746;19.678;2023-05-19T05:58:20;13.00;99.90
42979;DHT22;28616;44.746;19.678;2023-05-19T06:00:46;13.00;99.90
42979;DHT22;28616;44.746;19.678;2023-05-19T06:03:15;12.90;99.90
42979;DHT22;28616;44.746;19.678;2023-05-19T06:05:41;12.90;99.90
42979;DHT22;28616;44.746;19.678;2023-05-19T06:08:07;13.00;99.90
42979;DHT22;28616;44.746;19.678;2023-05-19T06:10:33;13.00;99.90
42979;DHT22;28616;44.746;19.678;2023-05-19T06:13:00;13.10;99.90
42979;DHT22;28616;44.746;19.678;2023-05-19T06:15:25;13.10;99.90
42979;DHT22;28616;44.746;19.678;2023-05-19T06:17:51;13.10;99.90
42979;DHT22;28616;44.746;19.678;2023-05-19T06:20:17;13.20;99.90
42979;DHT22;28616;44.746;19.678;2023-05-19T06:22:43;13.20;99.90
42979;DHT22;28616;44.746;19.678;2023-05-19T06:25:09;13.20;99.90
42979;DHT22;28616;44.746;19.678;2023-05-19T06:27:35;13.30;99.90
42979;DHT22;28616;44.746;19.678;2023-05-19T06:30:01;13.30;99.90
42979;DHT22;28616;44.746;19.678;2023-05-19T06:32:26;13.40;99.90
42979;DHT22;28616;44.746;19.678;2023-05-19T06:34:54;13.40;99.90
42979;DHT22;28616;44.746;19.678;2023-05-19T06:37:20;13.40;99.90
42979;DHT22;28616;44.746;19.678;2023-05-19T06:39:48;13.30;99.90
42979;DHT22;28616;44.746;19.678;2023-05-19T06:42:17;13.30;99.90
42979;DHT22;28616;44.746;19.678;2023-05-19T06:44:47;13.30;99.90
42979;DHT22;28616;44.746;19.678;2023-05-19T06:47:13;13.40;99.90
42979;DHT22;28616;44.746;19.678;2023-05-19T06:49:39;13.40;99.90
42979;DHT22;28616;44.746;19.678;2023-05-19T06:52:05;13.50;99.90
42979;DHT22;28616;44.746;19.678;2023-05-19T06:54:31;13.50;99.90
42979;DHT22;28616;44.746;19.678;2023-05-19T06:56:57;13.50;99.90
42979;DHT22;28616;44.746;19.678;2023-05-19T06:59:22;13.60;99.90
42979;DHT22;28616;44.746;19.678;2023-05-19T07:01:48;13.60;99.90
42979;DHT22;28616;44.746;19.678;2023-05-19T07:04:14;13.60;99.90
42979;DHT22;28616;44.746;19.678;2023-05-19T07:06:40;13.70;99.90
42979;DHT22;28616;44.746;19.678;2023-05-19T07:09:05;13.70;99.90
42979;DHT22;28616;44.746;19.678;2023-05-19T07:11:31;13.80;99.90
42979;DHT22;28616;44.746;19.678;2023-05-19T07:13:57;13.80;99.90
42979;DHT22;28616;44.746;19.678;2023-05-19T07:16:23;13.90;99.90
42979;DHT22;28616;44.746;19.678;2023-05-19T07:18:48;14.00;99.90
42979;DHT22;28616;44.746;19.678;2023-05-19T07:21:14;14.00;99.90
42979;DHT22;28616;44.746;19.678;2023-05-19T07:23:40;14.10;99.90
42979;DHT22;28616;44.746;19.678;2023-05-19T07:26:06;14.10;99.90
42979;DHT22;28616;44.746;19.678;2023-05-19T07:28:31;14.10;99.90
42979;DHT22;28616;44.746;19.678;2023-05-19T07:30:59;14.10;99.90
42979;DHT22;28616;44.746;19.678;2023-05-19T07:33:25;14.20;99.90
42979;DHT22;28616;44.746;19.678;2023-05-19T07:35:52;14.30;99.90
42979;DHT22;28616;44.746;19.678;2023-05-19T07:38:18;14.40;99.90
42979;DHT22;28616;44.746;19.678;2023-05-19T07:40:44;14.40;99.90
42979;DHT22;28616;44.746;19.678;2023-05-19T07:43:10;14.50;99.90
42979;DHT22;28616;44.746;19.678;2023-05-19T07:45:36;14.50;99.90
42979;DHT22;28616;44.746;19.678;2023-05-19T07:48:02;14.40;99.90
42979;DHT22;28616;44.746;19.678;2023-05-19T07:50:29;14.40;99.90
42979;DHT22;28616;44.746;19.678;2023-05-19T07:52:55;14.40;99.90
42979;DHT22;28616;44.746;19.678;2023-05-19T07:55:21;14.40;99.90
42979;DHT22;28616;44.746;19.678;2023-05-19T07:57:50;14.40;99.90
42979;DHT22;28616;44.746;19.678;2023-05-19T08:00:16;14.40;99.90
42979;DHT22;28616;44.746;19.678;2023-05-19T08:02:42;14.40;99.90
42979;DHT22;28616;44.746;19.678;2023-05-19T08:07:36;14.60;99.90
42979;DHT22;28616;44.746;19.678;2023-05-19T08:10:02;14.60;99.90
42979;DHT22;28616;44.746;19.678;2023-05-19T08:12:28;14.60;99.90
42979;DHT22;28616;44.746;19.678;2023-05-19T08:14:53;14.60;99.90
42979;DHT22;28616;44.746;19.678;2023-05-19T08:17:19;14.60;99.90
42979;DHT22;28616;44.746;19.678;2023-05-19T08:19:45;14.70;99.90
42979;DHT22;28616;44.746;19.678;2023-05-19T08:22:10;14.70;99.90
42979;DHT22;28616;44.746;19.678;2023-05-19T08:24:36;14.70;99.90
42979;DHT22;28616;44.746;19.678;2023-05-19T08:27:03;14.70;99.90
42979;DHT22;28616;44.746;19.678;2023-05-19T08:29:29;14.70;99.90
42979;DHT22;28616;44.746;19.678;2023-05-19T08:31:56;14.70;99.90
42979;DHT22;28616;44.746;19.678;2023-05-19T08:34:23;14.80;99.90
42979;DHT22;28616;44.746;19.678;2023-05-19T08:36:48;14.70;99.90
42979;DHT22;28616;44.746;19.678;2023-05-19T08:39:14;14.70;99.90
42979;DHT22;28616;44.746;19.678;2023-05-19T08:41:42;14.70;99.90
42979;DHT22;28616;44.746;19.678;2023-05-19T08:44:09;14.80;99.90
42979;DHT22;28616;44.746;19.678;2023-05-19T08:46:35;14.80;99.90
42979;DHT22;28616;44.746;19.678;2023-05-19T08:49:10;14.80;99.90
42979;DHT22;28616;44.746;19.678;2023-05-19T08:54:29;14.80;99.90
42979;DHT22;28616;44.746;19.678;2023-05-19T08:56:58;14.80;99.90
42979;DHT22;28616;44.746;19.678;2023-05-19T08:59:24;14.70;99.90
42979;DHT22;28616;44.746;19.678;2023-05-19T09:01:52;14.80;99.90
42979;DHT22;28616;44.746;19.678;2023-05-19T09:04:19;14.80;99.90
42979;DHT22;28616;44.746;19.678;2023-05-19T09:06:45;14.90;99.90
42979;DHT22;28616;44.746;19.678;2023-05-19T09:09:11;14.90;99.90
42979;DHT22;28616;44.746;19.678;2023-05-19T09:11:37;15.00;99.90
42979;DHT22;28616;44.746;19.678;2023-05-19T09:14:03;15.10;99.90
42979;DHT22;28616;44.746;19.678;2023-05-19T09:16:30;15.30;99.90
42979;DHT22;28616;44.746;19.678;2023-05-19T09:18:57;15.40;99.90
42979;DHT22;28616;44.746;19.678;2023-05-19T09:21:29;15.50;99.90
42979;DHT22;28616;44.746;19.678;2023-05-19T09:24:05;15.50;99.90
42979;DHT22;28616;44.746;19.678;2023-05-19T09:26:38;15.60;99.90
42979;DHT22;28616;44.746;19.678;2023-05-19T09:29:15;15.50;99.90
42979;DHT22;28616;44.746;19.678;2023-05-19T09:31:54;15.50;99.90
42979;DHT22;28616;44.746;19.678;2023-05-19T09:34:25;15.60;99.90
42979;DHT22;28616;44.746;19.678;2023-05-19T09:36:52;15.70;99.90
42979;DHT22;28616;44.746;19.678;2023-05-19T09:39:22;15.80;99.90
42979;DHT22;28616;44.746;19.678;2023-05-19T09:41:52;16.00;99.90
42979;DHT22;28616;44.746;19.678;2023-05-19T09:44:25;16.20;99.90
42979;DHT22;28616;44.746;19.678;2023-05-19T09:46:55;16.50;99.90
42979;DHT22;28616;44.746;19.678;2023-05-19T09:49:23;16.40;99.90
42979;DHT22;28616;44.746;19.678;2023-05-19T09:51:55;16.50;99.90
42979;DHT22;28616;44.746;19.678;2023-05-19T09:54:23;16.50;99.90
42979;DHT22;28616;44.746;19.678;2023-05-19T09:57:02;16.50;99.90
42979;DHT22;28616;44.746;19.678;2023-05-19T09:59:30;16.60;99.90
42979;DHT22;28616;44.746;19.678;2023-05-19T10:01:57;16.80;99.90
42979;DHT22;28616;44.746;19.678;2023-05-19T10:06:54;17.00;99.90
42979;DHT22;28616;44.746;19.678;2023-05-19T10:09:22;17.50;99.90
42979;DHT22;28616;44.746;19.678;2023-05-19T10:11:52;17.80;99.90
42979;DHT22;28616;44.746;19.678;2023-05-19T10:14:25;17.90;99.90
42979;DHT22;28616;44.746;19.678;2023-05-19T17:18:48;19.60;99.90
42979;DHT22;28616;44.746;19.678;2023-05-19T17:21:14;19.50;99.90
42979;DHT22;28616;44.746;19.678;2023-05-19T17:23:39;19.30;99.90
42979;DHT22;28616;44.746;19.678;2023-05-19T17:26:05;19.40;99.90
42979;DHT22;28616;44.746;19.678;2023-05-19T17:28:31;19.40;99.90
42979;DHT22;28616;44.746;19.678;2023-05-19T17:30:57;19.30;99.90
42979;DHT22;28616;44.746;19.678;2023-05-19T17:33:23;19.30;99.90
42979;DHT22;28616;44.746;19.678;2023-05-19T17:35:49;19.20;99.90
42979;DHT22;28616;44.746;19.678;2023-05-19T17:38:15;19.20;99.90
42979;DHT22;28616;44.746;19.678;2023-05-19T17:40:40;19.20;99.90
42979;DHT22;28616;44.746;19.678;2023-05-19T17:43:06;19.00;99.90
42979;DHT22;28616;44.746;19.678;2023-05-19T17:45:33;19.00;99.90
42979;DHT22;28616;44.746;19.678;2023-05-19T17:47:59;18.90;99.90
42979;DHT22;28616;44.746;19.678;2023-05-19T17:50:25;18.80;99.90
42979;DHT22;28616;44.746;19.678;2023-05-19T17:52:51;18.80;99.90
42979;DHT22;28616;44.746;19.678;2023-05-19T17:55:17;18.70;99.90
42979;DHT22;28616;44.746;19.678;2023-05-19T17:57:43;18.60;99.90
42979;DHT22;28616;44.746;19.678;2023-05-19T18:00:11;18.60;99.90
42979;DHT22;28616;44.746;19.678;2023-05-19T18:02:37;18.50;99.90
42979;DHT22;28616;44.746;19.678;2023-05-19T18:05:03;18.40;99.90
42979;DHT22;28616;44.746;19.678;2023-05-19T18:07:30;18.40;99.90
42979;DHT22;28616;44.746;19.678;2023-05-19T18:09:58;18.30;99.90
42979;DHT22;28616;44.746;19.678;2023-05-19T18:12:25;18.30;99.90
42979;DHT22;28616;44.746;19.678;2023-05-19T18:14:51;18.20;99.90
42979;DHT22;28616;44.746;19.678;2023-05-19T18:17:20;18.10;99.90
42979;DHT22;28616;44.746;19.678;2023-05-19T18:19:46;18.00;99.90
42979;DHT22;28616;44.746;19.678;2023-05-19T18:22:11;18.00;99.90
42979;DHT22;28616;44.746;19.678;2023-05-19T18:24:39;17.90;99.90
42979;DHT22;28616;44.746;19.678;2023-05-19T18:27:05;17.80;99.90
42979;DHT22;28616;44.746;19.678;2023-05-19T18:29:32;17.80;99.90
42979;DHT22;28616;44.746;19.678;2023-05-19T18:31:58;17.80;99.90
42979;DHT22;28616;44.746;19.678;2023-05-19T18:34:24;17.70;99.90
42979;DHT22;28616;44.746;19.678;2023-05-19T18:36:52;17.60;99.90
42979;DHT22;28616;44.746;19.678;2023-05-19T18:39:17;17.60;99.90
42979;DHT22;28616;44.746;19.678;2023-05-19T18:41:43;17.50;99.90
42979;DHT22;28616;44.746;19.678;2023-05-19T18:44:10;17.40;99.90
42979;DHT22;28616;44.746;19.678;2023-05-19T18:46:36;17.40;99.90
42979;DHT22;28616;44.746;19.678;2023-05-19T18:49:02;17.30;99.90
42979;DHT22;28616;44.746;19.678;2023-05-19T18:51:28;17.20;99.90
42979;DHT22;28616;44.746;19.678;2023-05-19T18:53:55;17.20;99.90
42979;DHT22;28616;44.746;19.678;2023-05-19T18:56:25;17.10;99.90
42979;DHT22;28616;44.746;19.678;2023-05-19T18:58:52;17.10;99.90
42979;DHT22;28616;44.746;19.678;2023-05-19T19:01:18;17.10;99.90
42979;DHT22;28616;44.746;19.678;2023-05-19T19:03:43;17.00;99.90
42979;DHT22;28616;44.746;19.678;2023-05-19T19:06:11;17.00;99.90
42979;DHT22;28616;44.746;19.678;2023-05-19T19:08:37;16.90;99.90
42979;DHT22;28616;44.746;19.678;2023-05-19T19:11:03;16.90;99.90
42979;DHT22;28616;44.746;19.678;2023-05-19T19:13:33;16.90;99.90
42979;DHT22;28616;44.746;19.678;2023-05-19T19:15:59;16.80;99.90
42979;DHT22;28616;44.746;19.678;2023-05-19T19:18:25;16.80;99.90
42979;DHT22;28616;44.746;19.678;2023-05-19T19:20:51;16.80;99.90
42979;DHT22;28616;44.746;19.678;2023-05-19T19:23:17;16.70;99.90
42979;DHT22;28616;44.746;19.678;2023-05-19T19:25:42;16.70;99.90
42979;DHT22;28616;44.746;19.678;2023-05-19T19:28:08;16.70;99.90
42979;DHT22;28616;44.746;19.678;2023-05-19T19:30:36;16.60;99.90
42979;DHT22;28616;44.746;19.678;2023-05-19T19:33:01;16.60;99.90
42979;DHT22;28616;44.746;19.678;2023-05-19T19:35:27;16.60;99.90
42979;DHT22;28616;44.746;19.678;2023-05-19T19:37:53;16.50;99.90
42979;DHT22;28616;44.746;19.678;2023-05-19T19:40:19;16.50;99.90
42979;DHT22;28616;44.746;19.678;2023-05-19T19:42:45;16.50;99.90
42979;DHT22;28616;44.746;19.678;2023-05-19T19:45:10;16.50;99.90
42979;DHT22;28616;44.746;19.678;2023-05-19T19:47:36;16.50;99.90
42979;DHT22;28616;44.746;19.678;2023-05-19T19:50:02;16.50;99.90
42979;DHT22;28616;44.746;19.678;2023-05-19T19:52:33;16.50;99.90
42979;DHT22;28616;44.746;19.678;2023-05-19T19:54:58;16.50;99.90
42979;DHT22;28616;44.746;19.678;2023-05-19T19:57:24;16.50;99.90
42979;DHT22;28616;44.746;19.678;2023-05-19T19:59:51;16.50;99.90
42979;DHT22;28616;44.746;19.678;2023-05-19T20:02:20;16.50;99.90
42979;DHT22;28616;44.746;19.678;2023-05-19T20:04:46;16.40;99.90
42979;DHT22;28616;44.746;19.678;2023-05-19T20:07:12;16.40;99.90
42979;DHT22;28616;44.746;19.678;2023-05-19T20:09:38;16.40;99.90
42979;DHT22;28616;44.746;19.678;2023-05-19T20:12:03;16.40;99.90
42979;DHT22;28616;44.746;19.678;2023-05-19T20:14:29;16.30;99.90
42979;DHT22;28616;44.746;19.678;2023-05-19T20:16:55;16.20;99.90
42979;DHT22;28616;44.746;19.678;2023-05-19T20:19:21;16.20;99.90
42979;DHT22;28616;44.746;19.678;2023-05-19T20:21:49;16.10;99.90
42979;DHT22;28616;44.746;19.678;2023-05-19T20:24:15;16.00;99.90
42979;DHT22;28616;44.746;19.678;2023-05-19T20:26:40;16.00;99.90
42979;DHT22;28616;44.746;19.678;2023-05-19T20:29:08;15.90;99.90
42979;DHT22;28616;44.746;19.678;2023-05-19T20:31:34;15.80;99.90
42979;DHT22;28616;44.746;19.678;2023-05-19T20:33:59;15.80;99.90
42979;DHT22;28616;44.746;19.678;2023-05-19T20:36:25;15.80;99.90
42979;DHT22;28616;44.746;19.678;2023-05-19T20:38:51;15.70;99.90
42979;DHT22;28616;44.746;19.678;2023-05-19T20:41:17;15.70;99.90
42979;DHT22;28616;44.746;19.678;2023-05-19T20:43:43;15.60;99.90
42979;DHT22;28616;44.746;19.678;2023-05-19T20:46:10;15.60;99.90
42979;DHT22;28616;44.746;19.678;2023-05-19T20:48:36;15.60;99.90
42979;DHT22;28616;44.746;19.678;2023-05-19T20:51:01;15.50;99.90
42979;DHT22;28616;44.746;19.678;2023-05-19T20:53:27;15.50;99.90
42979;DHT22;28616;44.746;19.678;2023-05-19T20:55:53;15.50;99.90
42979;DHT22;28616;44.746;19.678;2023-05-19T20:58:19;15.40;99.90
42979;DHT22;28616;44.746;19.678;2023-05-19T21:00:45;15.40;99.90
42979;DHT22;28616;44.746;19.678;2023-05-19T21:03:11;15.40;99.90
42979;DHT22;28616;44.746;19.678;2023-05-19T21:05:37;15.30;99.90
42979;DHT22;28616;44.746;19.678;2023-05-19T21:08:02;15.30;99.90
42979;DHT22;28616;44.746;19.678;2023-05-19T21:10:28;15.30;99.90
42979;DHT22;28616;44.746;19.678;2023-05-19T21:12:54;15.20;99.90
42979;DHT22;28616;44.746;19.678;2023-05-19T21:15:22;15.20;99.90
42979;DHT22;28616;44.746;19.678;2023-05-19T21:17:49;15.20;99.90
42979;DHT22;28616;44.746;19.678;2023-05-19T21:20:14;15.10;99.90
42979;DHT22;28616;44.746;19.678;2023-05-19T21:22:40;15.10;99.90
42979;DHT22;28616;44.746;19.678;2023-05-19T21:25:06;15.10;99.90
42979;DHT22;28616;44.746;19.678;2023-05-19T21:27:32;15.10;99.90
42979;DHT22;28616;44.746;19.678;2023-05-19T21:29:59;15.10;99.90
42979;DHT22;28616;44.746;19.678;2023-05-19T21:32:26;15.10;99.90
42979;DHT22;28616;44.746;19.678;2023-05-19T21:34:53;15.10;99.90
42979;DHT22;28616;44.746;19.678;2023-05-19T21:37:20;15.10;99.90
42979;DHT22;28616;44.746;19.678;2023-05-19T21:39:46;15.00;99.90
42979;DHT22;28616;44.746;19.678;2023-05-19T21:42:13;15.00;99.90
42979;DHT22;28616;44.746;19.678;2023-05-19T21:44:38;15.00;99.90
42979;DHT22;28616;44.746;19.678;2023-05-19T21:47:04;15.00;99.90
42979;DHT22;28616;44.746;19.678;2023-05-19T21:49:30;15.00;99.90
42979;DHT22;28616;44.746;19.678;2023-05-19T21:51:56;15.00;99.90
42979;DHT22;28616;44.746;19.678;2023-05-19T21:54:22;15.00;99.90
42979;DHT22;28616;44.746;19.678;2023-05-19T21:56:48;14.90;99.90
42979;DHT22;28616;44.746;19.678;2023-05-19T21:59:14;14.70;99.90
42979;DHT22;28616;44.746;19.678;2023-05-19T22:01:40;14.60;99.90
42979;DHT22;28616;44.746;19.678;2023-05-19T22:04:06;14.60;99.90
42979;DHT22;28616;44.746;19.678;2023-05-19T22:06:33;14.70;99.90
42979;DHT22;28616;44.746;19.678;2023-05-19T22:08:59;14.70;99.90
42979;DHT22;28616;44.746;19.678;2023-05-19T22:11:26;14.60;99.90
42979;DHT22;28616;44.746;19.678;2023-05-19T22:13:52;14.60;99.90
42979;DHT22;28616;44.746;19.678;2023-05-19T22:16:21;14.60;99.90
42979;DHT22;28616;44.746;19.678;2023-05-19T22:18:47;14.60;99.90
42979;DHT22;28616;44.746;19.678;2023-05-19T22:21:13;14.60;99.90
42979;DHT22;28616;44.746;19.678;2023-05-19T22:23:38;14.60;99.90
42979;DHT22;28616;44.746;19.678;2023-05-19T22:26:04;14.60;99.90
42979;DHT22;28616;44.746;19.678;2023-05-19T22:28:30;14.50;99.90
42979;DHT22;28616;44.746;19.678;2023-05-19T22:30:56;14.30;99.90
42979;DHT22;28616;44.746;19.678;2023-05-19T22:33:22;14.20;99.90
42979;DHT22;28616;44.746;19.678;2023-05-19T22:35:47;14.10;99.90
42979;DHT22;28616;44.746;19.678;2023-05-19T22:38:13;14.10;99.90